Time;durP1;ratioP1;P1;durP2;ratioP2;P2;SDS_P1;SDS_P2;PMS_P1;PMS_P2;Temp;Humidity;BMP_temperature;BMP_pressure;BME280_temperature;BME280_humidity;BME280_pressure;Samples;Min_cycle;Max_cycle;Signal;HPM_P1;HPM_P2
2023/06/05 00:00:47;;;;;;;78.60;2.50;;;19.60;28.60;;;;;;5008575;28;20285;-71
2023/06/05 00:03:12;;;;;;;78.67;2.20;;;19.50;29.00;;;;;;5020453;28;20183;-71
2023/06/05 00:05:38;;;;;;;78.83;2.17;;;19.40;27.70;;;;;;5034841;28;20216;-71
2023/06/05 00:08:03;;;;;;;78.80;2.43;;;19.40;28.80;;;;;;5035113;28;20201;-71
2023/06/05 00:10:29;;;;;;;79.17;2.40;;;16.80;27.20;;;;;;5035294;28;20195;-71
2023/06/05 00:12:55;;;;;;;78.40;2.10;;;19.20;28.80;;;;;;5032477;28;20254;-71
2023/06/05 00:15:21;;;;;;;79.33;2.60;;;19.20;28.20;;;;;;5018600;28;20521;-71
2023/06/05 00:17:46;;;;;;;78.77;2.23;;;19.20;28.90;;;;;;5026967;28;20577;-71
2023/06/05 00:20:12;;;;;;;79.20;2.20;;;19.30;29.10;;;;;;5034693;28;20193;-71
2023/06/05 00:22:38;;;;;;;79.70;2.47;;;19.10;28.70;;;;;;5034284;28;20263;-71
2023/06/05 00:25:05;;;;;;;79.90;2.60;;;19.10;28.40;;;;;;5035005;28;20532;-72
2023/06/05 00:27:31;;;;;;;79.37;2.60;;;19.10;29.30;;;;;;5035156;28;20636;-72
2023/06/05 00:29:56;;;;;;;79.40;2.70;;;19.10;29.00;;;;;;5034379;28;21000;-72
2023/06/05 00:32:22;;;;;;;79.10;2.30;;;19.10;28.60;;;;;;5034931;28;20207;-72
2023/06/05 00:34:49;;;;;;;78.70;2.00;;;19.00;29.10;;;;;;5034000;28;20181;-72
2023/06/05 00:37:15;;;;;;;79.13;2.50;;;19.10;28.60;;;;;;5034888;28;20247;-72
2023/06/05 00:39:41;;;;;;;80.13;2.63;;;18.90;30.60;;;;;;5034704;28;20990;-72
2023/06/05 00:42:10;;;;;;;79.70;2.53;;;19.00;30.00;;;;;;5034727;28;20257;-72
2023/06/05 00:44:35;;;;;;;79.80;2.83;;;18.90;29.50;;;;;;5033762;28;20413;-72
2023/06/05 00:47:02;;;;;;;79.57;2.30;;;18.80;30.20;;;;;;5034602;28;20414;-72
2023/06/05 00:49:28;;;;;;;79.77;2.23;;;18.80;29.50;;;;;;5034770;28;20211;-72
2023/06/05 00:51:54;;;;;;;79.50;2.20;;;18.80;30.00;;;;;;5034195;28;20454;-72
2023/06/05 00:54:22;;;;;;;80.90;2.73;;;18.70;30.00;;;;;;5034004;28;20506;-72
2023/06/05 00:56:48;;;;;;;79.57;2.33;;;18.60;30.60;;;;;;5034334;28;20635;-72
2023/06/05 00:59:14;;;;;;;79.60;2.10;;;18.60;30.20;;;;;;5033934;28;20449;-72
2023/06/05 01:01:42;;;;;;;81.47;2.83;;;18.50;30.60;;;;;;5034102;28;20480;-72
2023/06/05 01:04:08;;;;;;;80.03;2.27;;;18.40;31.80;;;;;;5033694;28;20808;-72
2023/06/05 01:06:35;;;;;;;80.03;2.40;;;18.40;31.00;;;;;;5032930;28;20415;-72
2023/06/05 01:09:02;;;;;;;80.10;2.37;;;18.40;30.70;;;;;;5034247;28;20185;-72
2023/06/05 01:11:52;;;;;;;80.90;3.00;;;18.30;31.90;;;;;;5034056;28;20414;-72
2023/06/05 01:14:27;;;;;;;79.70;1.97;;;18.30;31.90;;;;;;5032599;28;21170;-71
2023/06/05 01:16:54;;;;;;;80.27;2.40;;;18.40;31.00;;;;;;5033991;28;20486;-71
2023/06/05 01:19:28;;;;;;;80.70;2.50;;;18.20;31.70;;;;;;5034071;28;20938;-71
2023/06/05 01:21:55;;;;;;;80.30;2.60;;;18.20;31.60;;;;;;5033856;28;20409;-71
2023/06/05 01:24:22;;;;;;;80.90;2.63;;;18.30;30.80;;;;;;5033304;28;20964;-71
2023/06/05 01:27:02;;;;;;;80.33;2.10;;;18.50;30.50;;;;;;5033919;28;20461;-71
2023/06/05 01:29:48;;;;;;;80.57;2.43;;;18.40;30.40;;;;;;5033613;28;20431;-71
2023/06/05 01:32:21;;;;;;;80.17;2.33;;;18.40;30.20;;;;;;5033669;28;20454;-71
2023/06/05 01:34:48;;;;;;;81.50;2.40;;;18.30;32.30;;;;;;5033051;28;20790;-71
2023/06/05 01:37:18;;;;;;;80.27;2.40;;;18.10;31.70;;;;;;5033676;28;20414;-71
2023/06/05 01:39:46;;;;;;;79.97;2.10;;;18.20;31.80;;;;;;5033637;28;20430;-71
2023/06/05 01:42:13;;;;;;;98.00;3.77;;;18.40;32.00;;;;;;5033592;28;20869;-71
2023/06/05 01:44:40;;;;;;;80.23;2.10;;;18.20;31.40;;;;;;5033016;28;20414;-71
2023/06/05 01:47:07;;;;;;;80.20;2.20;;;17.90;33.00;;;;;;5033372;28;20415;-71
2023/06/05 01:49:33;;;;;;;81.10;2.77;;;18.00;32.30;;;;;;5033286;28;20480;-71
2023/06/05 01:51:59;;;;;;;80.20;2.37;;;17.90;31.90;;;;;;5031985;28;20489;-71
2023/06/05 01:54:26;;;;;;;80.37;2.50;;;17.70;32.70;;;;;;5032908;28;20443;-71
2023/06/05 01:56:52;;;;;;;80.33;2.30;;;17.70;32.10;;;;;;5033157;28;20193;-71
2023/06/05 01:59:19;;;;;;;80.40;2.47;;;17.60;32.10;;;;;;5032845;28;20434;-71
2023/06/05 02:01:45;;;;;;;80.27;2.30;;;17.60;32.20;;;;;;5033189;28;20415;-71
2023/06/05 02:04:11;;;;;;;81.10;2.47;;;17.60;32.20;;;;;;5032547;28;20439;-71
2023/06/05 02:06:42;;;;;;;80.90;2.63;;;17.50;32.40;;;;;;5033252;28;20440;-71
2023/06/05 02:09:14;;;;;;;80.30;2.10;;;17.50;33.00;;;;;;5033155;28;20192;-71
2023/06/05 02:11:45;;;;;;;80.27;2.03;;;17.60;32.90;;;;;;5032906;28;20404;-71
2023/06/05 02:14:15;;;;;;;80.27;2.00;;;17.70;33.10;;;;;;5032386;28;20420;-71
2023/06/05 02:16:41;;;;;;;81.50;2.73;;;17.70;33.70;;;;;;5033031;28;20394;-72
2023/06/05 02:19:07;;;;;;;80.70;2.30;;;17.70;33.50;;;;;;5032836;28;20481;-72
2023/06/05 02:21:33;;;;;;;80.67;2.00;;;17.50;34.00;;;;;;5032956;28;20403;-72
2023/06/05 02:24:00;;;;;;;80.40;1.93;;;17.50;33.90;;;;;;5030673;28;20180;-72
2023/06/05 02:26:27;;;;;;;80.53;2.03;;;17.50;32.80;;;;;;5031305;28;20722;-71
2023/06/05 02:28:55;;;;;;;82.10;2.40;;;17.50;33.50;;;;;;5032583;28;20791;-71
2023/06/05 02:31:24;;;;;;;80.93;2.27;;;17.50;33.40;;;;;;5032710;28;20407;-71
2023/06/05 02:33:51;;;;;;;80.63;2.07;;;17.60;32.60;;;;;;5031882;28;20802;-71
2023/06/05 02:36:16;;;;;;;81.73;2.60;;;17.80;33.60;;;;;;5033188;28;20410;-71
2023/06/05 02:38:42;;;;;;;81.87;2.50;;;17.70;32.70;;;;;;5032394;28;20514;-71
2023/06/05 02:41:09;;;;;;;81.17;2.53;;;17.50;33.70;;;;;;5032335;28;20665;-71
2023/06/05 02:43:34;;;;;;;81.73;2.60;;;17.30;34.20;;;;;;5031961;28;20419;-71
2023/06/05 02:46:00;;;;;;;81.67;2.43;;;17.30;34.50;;;;;;5032547;28;20506;-71
2023/06/05 02:48:26;;;;;;;82.17;2.60;;;17.30;33.90;;;;;;5032370;28;20199;-71
2023/06/05 02:50:51;;;;;;;81.77;2.47;;;17.40;34.00;;;;;;5032117;28;20788;-71
2023/06/05 02:53:17;;;;;;;81.67;2.50;;;17.20;34.30;;;;;;5031699;28;20301;-71
2023/06/05 02:55:43;;;;;;;81.73;2.50;;;17.00;34.60;;;;;;5032184;28;20226;-71
2023/06/05 02:58:12;;;;;;;81.30;2.13;;;17.10;34.80;;;;;;5032019;28;20260;-71
2023/06/05 03:00:38;;;;;;;82.67;3.10;;;17.00;34.80;;;;;;5031703;28;20448;-71
2023/06/05 03:03:06;;;;;;;80.90;1.80;;;17.00;34.30;;;;;;5031630;28;20423;-71
2023/06/05 03:05:32;;;;;;;84.40;2.47;;;17.00;34.80;;;;;;5030884;28;20195;-71
2023/06/05 03:07:57;;;;;;;82.10;2.77;;;17.10;34.80;;;;;;5030449;28;20788;-71
2023/06/05 03:10:23;;;;;;;82.20;2.43;;;17.00;34.10;;;;;;5031795;28;20192;-71
2023/06/05 03:12:49;;;;;;;82.60;2.80;;;16.90;34.70;;;;;;5031307;28;20200;-71
2023/06/05 03:15:16;;;;;;;82.37;2.53;;;16.90;34.70;;;;;;5031932;28;20171;-71
2023/06/05 03:17:42;;;;;;;81.50;2.00;;;16.70;34.70;;;;;;5031976;28;20203;-71
2023/06/05 03:20:09;;;;;;;81.90;2.40;;;16.70;34.90;;;;;;5030690;28;20435;-71
2023/06/05 03:22:35;;;;;;;81.87;2.20;;;16.60;34.50;;;;;;5029969;28;20779;-71
2023/06/05 03:25:01;;;;;;;81.80;2.30;;;16.60;35.60;;;;;;5031806;28;20437;-71
2023/06/05 03:27:26;;;;;;;82.50;2.57;;;16.70;34.80;;;;;;5032045;28;20447;-70
2023/06/05 03:29:52;;;;;;;81.80;2.20;;;16.60;35.60;;;;;;5031365;28;20222;-71
2023/06/05 03:32:17;;;;;;;82.30;2.53;;;16.60;35.50;;;;;;5031240;28;20305;-71
2023/06/05 03:34:48;;;;;;;81.83;2.20;;;16.60;35.70;;;;;;5031144;28;20175;-71
2023/06/05 03:37:14;;;;;;;82.67;2.63;;;16.70;35.20;;;;;;5031076;28;20168;-71
2023/06/05 03:39:40;;;;;;;82.10;2.40;;;16.70;35.00;;;;;;5031393;28;20918;-71
2023/06/05 03:42:11;;;;;;;83.20;2.60;;;16.70;35.40;;;;;;5031271;28;20411;-70
2023/06/05 03:44:37;;;;;;;82.13;2.40;;;16.70;34.00;;;;;;5031276;28;20166;-69
2023/06/05 03:47:04;;;;;;;81.97;2.13;;;16.70;34.90;;;;;;5031446;28;20405;-69
2023/06/05 03:49:29;;;;;;;81.70;1.90;;;16.80;34.20;;;;;;5031676;28;20192;-69
2023/06/05 03:52:00;;;;;;;82.70;2.40;;;16.80;33.80;;;;;;5031405;28;20659;-69
2023/06/05 03:54:27;;;;;;;82.47;2.57;;;16.70;33.40;;;;;;5030926;28;20694;-69
2023/06/05 03:56:57;;;;;;;82.87;2.33;;;16.80;35.10;;;;;;5031479;28;20936;-69
2023/06/05 03:59:25;;;;;;;82.67;2.40;;;16.80;35.40;;;;;;5030995;28;20439;-69
2023/06/05 04:01:51;;;;;;;82.20;2.33;;;16.70;35.50;;;;;;5031421;28;20465;-69
2023/06/05 04:04:17;;;;;;;82.07;2.00;;;16.80;35.00;;;;;;5030825;28;20399;-69
2023/06/05 04:06:43;;;;;;;82.70;2.40;;;16.60;35.00;;;;;;5031167;28;20200;-69
2023/06/05 04:09:12;;;;;;;82.77;2.33;;;16.80;35.30;;;;;;5029968;28;20435;-69
2023/06/05 04:11:42;;;;;;;83.30;2.60;;;16.70;34.80;;;;;;5031464;28;20414;-69
2023/06/05 04:14:09;;;;;;;83.07;2.63;;;16.80;35.20;;;;;;5030479;28;20980;-69
2023/06/05 04:16:38;;;;;;;82.20;2.10;;;16.80;34.90;;;;;;5031333;28;20403;-72
2023/06/05 04:19:06;;;;;;;82.60;2.40;;;16.70;35.70;;;;;;5031075;28;20426;-69
2023/06/05 04:21:33;;;;;;;83.70;2.53;;;16.70;36.50;;;;;;5031427;28;20402;-69
2023/06/05 04:23:58;;;;;;;82.27;2.10;;;16.70;36.00;;;;;;5030501;28;20415;-73
2023/06/05 04:26:26;;;;;;;82.67;2.50;;;16.70;35.80;;;;;;5031231;28;20932;-69
2023/06/05 04:28:51;;;;;;;82.90;2.57;;;16.80;35.30;;;;;;5030718;28;20287;-70
2023/06/05 04:31:17;;;;;;;82.70;2.30;;;16.90;35.70;;;;;;5031197;28;20486;-69
2023/06/05 04:33:43;;;;;;;82.77;2.63;;;16.90;34.30;;;;;;5030376;28;20451;-70
2023/06/05 04:36:09;;;;;;;82.57;2.37;;;16.90;33.40;;;;;;5029547;28;20428;-70
2023/06/05 04:38:34;;;;;;;82.77;2.40;;;16.90;33.90;;;;;;5030880;28;21058;-73
2023/06/05 04:41:00;;;;;;;82.60;2.50;;;17.10;34.00;;;;;;5031114;28;20173;-69
2023/06/05 04:43:26;;;;;;;82.07;1.90;;;17.20;33.60;;;;;;5030436;28;20177;-69
2023/06/05 04:45:51;;;;;;;82.87;2.20;;;17.30;32.70;;;;;;5031129;28;20177;-70
2023/06/05 04:48:17;;;;;;;82.67;2.40;;;17.40;33.60;;;;;;5030790;28;20195;-72
2023/06/05 04:50:43;;;;;;;83.03;2.63;;;17.50;33.00;;;;;;5033135;28;20216;-69
2023/06/05 04:53:08;;;;;;;82.83;2.50;;;17.40;32.50;;;;;;5033750;28;20223;-69
2023/06/05 04:55:34;;;;;;;82.70;2.20;;;17.40;32.70;;;;;;5034793;28;20165;-70
2023/06/05 04:58:00;;;;;;;82.17;2.00;;;17.20;33.20;;;;;;5034465;28;20175;-69
2023/06/05 05:00:26;;;;;;;83.87;2.93;;;17.20;33.40;;;;;;5033906;28;20254;-69
2023/06/05 05:02:53;;;;;;;82.97;2.73;;;17.60;33.70;;;;;;5033793;28;20443;-69
2023/06/05 05:05:19;;;;;;;82.70;2.40;;;17.30;33.70;;;;;;5034366;28;20420;-69
2023/06/05 05:07:45;;;;;;;84.33;3.07;;;17.30;32.50;;;;;;5034360;28;20409;-69
2023/06/05 05:10:11;;;;;;;83.30;2.87;;;17.00;33.00;;;;;;5034277;28;20450;-69
2023/06/05 05:12:37;;;;;;;82.50;2.30;;;17.20;33.50;;;;;;5033588;28;20453;-69
2023/06/05 05:15:04;;;;;;;82.80;2.70;;;17.10;33.30;;;;;;5034078;28;20867;-71
2023/06/05 05:17:30;;;;;;;83.47;2.90;;;17.30;34.00;;;;;;5034053;28;20936;-71
2023/06/05 05:19:57;;;;;;;82.70;2.60;;;17.60;33.90;;;;;;5032560;28;20425;-71
2023/06/05 05:22:22;;;;;;;82.57;2.60;;;17.70;32.10;;;;;;5034066;28;20416;-71
2023/06/05 05:24:48;;;;;;;83.20;2.67;;;18.00;31.90;;;;;;5033372;28;20408;-71
2023/06/05 05:27:14;;;;;;;83.00;2.70;;;18.20;31.20;;;;;;5033876;28;20281;-71
2023/06/05 05:29:39;;;;;;;82.20;2.30;;;18.00;31.10;;;;;;5033459;28;20263;-71
2023/06/05 05:32:05;;;;;;;82.10;2.10;;;17.70;30.40;;;;;;5033609;28;20779;-71
2023/06/05 05:34:31;;;;;;;83.20;2.73;;;17.50;31.40;;;;;;5032111;28;20215;-71
2023/06/05 05:36:57;;;;;;;87.57;3.27;;;17.50;31.40;;;;;;5033681;28;20534;-71
2023/06/05 05:39:22;;;;;;;92.53;3.60;;;17.40;31.10;;;;;;5033321;28;20264;-71
2023/06/05 05:41:48;;;;;;;82.13;2.20;;;17.40;33.60;;;;;;5034084;28;20470;-71
2023/06/05 05:44:13;;;;;;;83.73;3.13;;;17.10;33.00;;;;;;5032939;28;20604;-71
2023/06/05 05:46:39;;;;;;;82.17;2.20;;;17.20;33.50;;;;;;5033449;28;20686;-71
2023/06/05 05:49:05;;;;;;;83.73;3.20;;;17.40;33.00;;;;;;5033445;28;20200;-71
2023/06/05 05:51:30;;;;;;;82.50;2.80;;;17.80;33.70;;;;;;5033577;28;20176;-71
2023/06/05 05:53:56;;;;;;;82.67;2.63;;;17.90;32.10;;;;;;5032546;28;20246;-71
2023/06/05 05:56:22;;;;;;;82.50;2.23;;;18.20;31.60;;;;;;5013979;28;20646;-71
2023/06/05 05:58:47;;;;;;;85.30;2.77;;;18.10;30.70;;;;;;5012264;28;20205;-71
2023/06/05 06:01:13;;;;;;;82.07;2.37;;;17.80;29.80;;;;;;5012622;28;20180;-71
2023/06/05 06:03:38;;;;;;;81.77;2.10;;;18.30;31.60;;;;;;5012956;28;20265;-71
2023/06/05 06:06:07;;;;;;;83.07;3.07;;;18.20;31.50;;;;;;5013323;28;20651;-71
2023/06/05 06:08:36;;;;;;;81.97;2.33;;;18.70;30.40;;;;;;5013444;28;20669;-71
2023/06/05 06:11:06;;;;;;;81.70;2.00;;;18.20;29.60;;;;;;5013199;28;20757;-71
2023/06/05 06:13:33;;;;;;;84.37;3.00;;;17.80;30.00;;;;;;5010725;28;20503;-71
2023/06/05 06:15:58;;;;;;;81.67;2.23;;;18.20;30.10;;;;;;5011624;28;20411;-71
2023/06/05 06:18:25;;;;;;;82.03;2.30;;;18.70;29.80;;;;;;5013005;28;20408;-71
2023/06/05 06:20:51;;;;;;;82.00;2.60;;;18.80;29.80;;;;;;5012889;28;20182;-71
2023/06/05 06:23:16;;;;;;;82.33;2.53;;;19.20;31.10;;;;;;5012407;28;20429;-73
2023/06/05 06:25:42;;;;;;;81.87;2.50;;;19.20;28.90;;;;;;5016973;28;20182;-72
2023/06/05 06:28:07;;;;;;;82.87;2.73;;;18.70;28.80;;;;;;5016700;28;20251;-72
2023/06/05 06:30:33;;;;;;;84.67;2.77;;;18.50;29.50;;;;;;5016278;28;20317;-74
2023/06/05 06:32:59;;;;;;;81.43;2.20;;;18.40;29.70;;;;;;5016802;28;20722;-73
2023/06/05 06:35:25;;;;;;;81.97;2.50;;;18.70;30.10;;;;;;5018221;28;20166;-73
2023/06/05 06:37:54;;;;;;;82.20;2.80;;;19.30;29.10;;;;;;5018569;28;20218;-73
2023/06/05 06:40:21;;;;;;;81.80;2.30;;;19.10;29.00;;;;;;5017461;28;20553;-72
2023/06/05 06:42:46;;;;;;;82.50;2.90;;;18.90;28.90;;;;;;5017473;28;20420;-73
2023/06/05 06:45:12;;;;;;;81.40;2.10;;;19.30;29.50;;;;;;5015716;28;20412;-71
2023/06/05 06:47:38;;;;;;;81.50;2.30;;;19.60;28.10;;;;;;5014429;28;20184;-73
2023/06/05 06:50:04;;;;;;;81.77;2.60;;;19.20;28.40;;;;;;5014653;28;20202;-73
2023/06/05 06:52:30;;;;;;;81.60;2.50;;;19.00;28.50;;;;;;5014992;28;20203;-68
2023/06/05 06:54:56;;;;;;;81.70;2.30;;;19.30;29.10;;;;;;5014321;28;20411;-73
2023/06/05 06:57:21;;;;;;;82.67;2.67;;;19.70;27.80;;;;;;5014871;28;20408;-74
2023/06/05 06:59:47;;;;;;;81.73;2.63;;;20.20;29.00;;;;;;5013727;28;20296;-73
2023/06/05 07:02:19;;;;;;;81.67;2.50;;;20.00;26.70;;;;;;5014430;28;20178;-73
2023/06/05 07:04:45;;;;;;;85.33;2.80;;;20.20;27.90;;;;;;5013981;28;20415;-73
2023/06/05 07:07:16;;;;;;;81.27;2.47;;;20.60;27.10;;;;;;5015284;28;20412;-73
2023/06/05 07:09:43;;;;;;;80.90;2.30;;;20.90;26.60;;;;;;5014425;28;20431;-73
2023/06/05 07:12:10;;;;;;;81.80;2.90;;;20.20;26.10;;;;;;5015474;28;20994;-73
2023/06/05 07:14:35;;;;;;;81.90;2.57;;;20.00;26.90;;;;;;5013631;28;20419;-74
2023/06/05 07:17:02;;;;;;;81.47;2.37;;;20.60;27.20;;;;;;5013825;28;20418;-72
2023/06/05 07:19:29;;;;;;;81.17;2.40;;;20.40;26.30;;;;;;5012773;28;20283;-73
2023/06/05 07:21:59;;;;;;;81.17;2.43;;;20.60;26.50;;;;;;5014295;28;20414;-71
2023/06/05 07:24:25;;;;;;;81.07;2.20;;;20.70;25.80;;;;;;5013579;28;20428;-71
2023/06/05 07:26:58;;;;;;;81.27;2.50;;;20.80;25.70;;;;;;5012963;28;20422;-72
2023/06/05 07:29:24;;;;;;;80.70;2.10;;;20.70;25.00;;;;;;5012240;28;20435;-73
2023/06/05 07:31:51;;;;;;;80.67;2.30;;;20.60;25.10;;;;;;5014065;28;20438;-72
2023/06/05 07:34:21;;;;;;;80.90;2.60;;;20.90;25.70;;;;;;5011754;28;20431;-73
2023/06/05 07:36:48;;;;;;;81.27;2.63;;;21.00;24.30;;;;;;5014079;28;20460;-73
2023/06/05 07:39:15;;;;;;;80.47;2.20;;;21.00;25.20;;;;;;5012154;28;20961;-73
2023/06/05 07:41:41;;;;;;;80.70;2.33;;;21.20;25.30;;;;;;5011879;28;20449;-73
2023/06/05 07:44:10;;;;;;;93.97;3.97;;;20.80;25.30;;;;;;5028547;28;20455;-72
2023/06/05 07:46:35;;;;;;;80.60;2.50;;;21.20;24.60;;;;;;5032262;28;20261;-72
2023/06/05 07:49:01;;;;;;;80.40;2.40;;;20.50;25.40;;;;;;5032401;28;20894;-74
2023/06/05 07:51:27;;;;;;;79.90;2.20;;;20.60;26.40;;;;;;5032877;28;20182;-72
2023/06/05 07:53:52;;;;;;;80.40;2.03;;;21.10;25.30;;;;;;5031651;28;20210;-72
2023/06/05 07:56:18;;;;;;;79.83;2.20;;;21.40;25.50;;;;;;5031963;28;20190;-73
2023/06/05 07:58:43;;;;;;;79.70;2.10;;;21.30;25.20;;;;;;5032103;28;20670;-71
2023/06/05 08:01:12;;;;;;;79.80;2.33;;;20.60;26.10;;;;;;5033144;28;20178;-73
2023/06/05 08:03:37;;;;;;;80.00;2.50;;;20.60;27.00;;;;;;5032722;28;20179;-73
2023/06/05 08:06:03;;;;;;;79.30;2.07;;;20.30;26.20;;;;;;5033340;28;20413;-73
2023/06/05 08:08:29;;;;;;;79.67;2.40;;;21.20;26.80;;;;;;5033601;28;20648;-73
2023/06/05 08:10:55;;;;;;;80.40;2.43;;;22.00;25.40;;;;;;5033835;28;20211;-73
2023/06/05 08:13:21;;;;;;;80.23;2.90;;;22.40;23.90;;;;;;5032571;28;20491;-73
2023/06/05 08:15:46;;;;;;;79.70;2.50;;;22.20;25.20;;;;;;5033600;28;21004;-73
2023/06/05 08:18:12;;;;;;;79.60;2.27;;;22.40;25.50;;;;;;5024449;28;20184;-72
2023/06/05 08:20:38;;;;;;;79.70;2.50;;;22.30;24.90;;;;;;5015490;28;20789;-73
2023/06/05 08:23:05;;;;;;;79.97;2.20;;;22.20;25.00;;;;;;5018330;28;20188;-74
2023/06/05 08:25:31;;;;;;;79.27;2.17;;;22.50;25.50;;;;;;5017515;28;20174;-73
2023/06/05 08:27:56;;;;;;;79.30;2.47;;;22.90;26.40;;;;;;5017580;28;20489;-72
2023/06/05 08:30:22;;;;;;;79.50;2.33;;;23.30;25.00;;;;;;5015527;28;20502;-74
2023/06/05 08:32:47;;;;;;;79.10;2.17;;;23.50;24.20;;;;;;5016162;28;20217;-73
2023/06/05 08:35:13;;;;;;;79.50;2.50;;;23.10;24.80;;;;;;5018566;28;20179;-73
2023/06/05 08:37:40;;;;;;;79.20;2.33;;;22.90;24.90;;;;;;5019752;28;20198;-71
2023/06/05 08:40:08;;;;;;;79.30;2.53;;;23.20;24.10;;;;;;5017977;28;20367;-73
2023/06/05 08:42:34;;;;;;;79.17;2.33;;;23.00;25.10;;;;;;5019688;28;20418;-73
2023/06/05 08:45:00;;;;;;;78.80;2.17;;;23.10;25.80;;;;;;5012640;28;20584;-73
2023/06/05 08:47:30;;;;;;;81.90;2.70;;;23.60;24.30;;;;;;5010925;28;20992;-73
2023/06/05 08:49:56;;;;;;;79.60;2.30;;;23.00;24.60;;;;;;5015587;28;20206;-72
2023/06/05 08:52:23;;;;;;;78.97;2.40;;;22.60;25.50;;;;;;5019415;28;20453;-73
2023/06/05 08:54:49;;;;;;;79.23;2.47;;;22.60;26.20;;;;;;5013295;28;20465;-73
2023/06/05 08:57:15;;;;;;;78.97;2.53;;;22.40;26.10;;;;;;5016086;28;20518;-71
2023/06/05 08:59:42;;;;;;;78.37;1.90;;;22.60;26.60;;;;;;5017152;28;20499;-73
2023/06/05 09:02:10;;;;;;;78.87;2.43;;;22.30;26.30;;;;;;5017135;28;20426;-73
2023/06/05 09:04:38;;;;;;;78.70;2.40;;;22.40;26.60;;;;;;5018300;28;20417;-73
2023/06/05 09:07:04;;;;;;;79.13;2.80;;;22.60;26.30;;;;;;5018215;28;20453;-73
2023/06/05 09:09:32;;;;;;;78.73;2.67;;;22.80;25.80;;;;;;5019024;28;20433;-72
2023/06/05 09:12:06;;;;;;;78.83;2.67;;;23.50;26.60;;;;;;5019710;28;20417;-71
2023/06/05 09:14:32;;;;;;;78.03;2.23;;;24.00;26.50;;;;;;5019106;28;20442;-73
2023/06/05 09:17:00;;;;;;;101.30;2.77;;;23.90;25.00;;;;;;5015896;28;20503;-72
2023/06/05 09:19:39;;;;;;;78.47;2.27;;;23.50;26.10;;;;;;5017632;28;20467;-73
2023/06/05 09:22:07;;;;;;;79.40;2.50;;;24.10;26.10;;;;;;5017923;28;20426;-73
2023/06/05 09:24:33;;;;;;;78.60;2.50;;;24.60;25.50;;;;;;5017946;28;20501;-73
2023/06/05 09:27:01;;;;;;;78.67;2.50;;;24.50;25.40;;;;;;5017975;28;20979;-74
2023/06/05 09:29:29;;;;;;;79.10;2.70;;;24.80;24.90;;;;;;5018909;28;20440;-73
2023/06/05 09:32:02;;;;;;;78.47;2.60;;;25.00;25.80;;;;;;5019531;28;20412;-73
2023/06/05 09:34:33;;;;;;;78.20;2.60;;;25.60;24.50;;;;;;5018741;28;20487;-73
2023/06/05 09:37:00;;;;;;;78.23;2.40;;;25.20;24.40;;;;;;5019585;28;20401;-73
2023/06/05 09:39:28;;;;;;;78.40;2.40;;;25.60;24.50;;;;;;5019295;28;20432;-73
2023/06/05 09:41:57;;;;;;;78.30;2.47;;;25.90;24.30;;;;;;5017986;28;20412;-74
2023/06/05 09:44:25;;;;;;;77.73;2.30;;;25.50;24.30;;;;;;5017491;28;20749;-73
2023/06/05 09:46:53;;;;;;;79.37;2.80;;;25.50;24.40;;;;;;5019960;28;20412;-74
2023/06/05 09:49:20;;;;;;;78.17;2.40;;;26.10;24.60;;;;;;5018369;28;20955;-73
2023/06/05 09:51:46;;;;;;;77.33;2.20;;;26.10;24.00;;;;;;5020084;28;20470;-73
2023/06/05 09:54:13;;;;;;;78.70;2.87;;;25.80;24.10;;;;;;5020178;28;20452;-73
2023/06/05 09:56:43;;;;;;;77.77;2.43;;;26.20;24.30;;;;;;5021606;28;20408;-71
2023/06/05 09:59:13;;;;;;;79.30;2.70;;;26.60;23.30;;;;;;5021440;28;20479;-73
2023/06/05 10:01:41;;;;;;;78.17;2.50;;;27.10;23.40;;;;;;5021705;28;20408;-72
2023/06/05 10:04:10;;;;;;;77.77;2.40;;;27.00;23.10;;;;;;5016079;28;20440;-73
2023/06/05 10:06:37;;;;;;;77.87;2.40;;;26.90;23.20;;;;;;5018432;28;20438;-73
2023/06/05 10:09:03;;;;;;;78.10;2.63;;;26.30;23.30;;;;;;5019949;28;20489;-73
2023/06/05 10:11:29;;;;;;;77.87;2.50;;;26.30;23.00;;;;;;5019599;28;20431;-72
2023/06/05 10:13:58;;;;;;;77.57;2.50;;;26.40;22.70;;;;;;5028382;28;20470;-73
2023/06/05 10:16:27;;;;;;;77.60;2.40;;;26.60;21.70;;;;;;5038952;28;21053;-73
2023/06/05 10:18:56;;;;;;;78.73;2.93;;;26.70;22.00;;;;;;5040230;28;21016;-72
2023/06/05 10:21:22;;;;;;;77.40;2.33;;;27.10;21.80;;;;;;5041399;28;20414;-73
2023/06/05 10:23:52;;;;;;;78.97;2.87;;;27.60;22.00;;;;;;5027589;28;20458;-73
2023/06/05 10:26:56;;;;;;;76.90;2.40;;;27.60;20.90;;;;;;5027316;28;20423;-74
2023/06/05 10:29:55;;;;;;;78.30;2.67;;;27.60;21.00;;;;;;5024285;28;20462;-72
2023/06/05 10:32:32;;;;;;;76.57;2.43;;;27.50;19.50;;;;;;5030388;28;20459;-73
2023/06/05 10:35:30;;;;;;;76.63;2.60;;;27.80;20.20;;;;;;5040148;28;20411;-70
2023/06/05 10:38:20;;;;;;;76.00;2.30;;;28.20;20.10;;;;;;5009971;28;20439;-73
2023/06/05 10:40:53;;;;;;;76.30;2.53;;;28.10;21.10;;;;;;5011091;28;20432;-71
2023/06/05 10:43:47;;;;;;;76.97;2.70;;;28.30;20.30;;;;;;5018627;28;20477;-73
2023/06/05 10:46:35;;;;;;;75.40;2.10;;;28.50;19.70;;;;;;5019315;28;20400;-73
2023/06/05 10:49:19;;;;;;;75.30;2.37;;;28.40;17.70;;;;;;5019156;28;20420;-73
2023/06/05 10:51:46;;;;;;;76.10;2.80;;;28.90;18.30;;;;;;5016099;28;20792;-74
2023/06/05 10:54:16;;;;;;;75.00;2.30;;;29.10;19.10;;;;;;5019324;28;20489;-74
2023/06/05 10:56:51;;;;;;;75.60;2.50;;;29.40;16.80;;;;;;5021821;28;20467;-74
2023/06/05 10:59:20;;;;;;;75.57;2.50;;;29.50;17.10;;;;;;5026764;28;20818;-73
2023/06/05 11:02:09;;;;;;;76.10;2.87;;;29.00;16.20;;;;;;5014360;28;20503;-74
2023/06/05 11:04:46;;;;;;;75.20;2.47;;;29.20;18.10;;;;;;5012050;28;20503;-72
2023/06/05 11:07:26;;;;;;;75.10;2.50;;;28.90;17.60;;;;;;5011808;28;20442;-72
2023/06/05 11:10:15;;;;;;;74.47;2.17;;;29.10;17.50;;;;;;5011507;28;20546;-72
2023/06/05 11:12:41;;;;;;;74.40;2.47;;;28.80;15.80;;;;;;5011428;28;20447;-72
2023/06/05 11:15:08;;;;;;;74.20;2.27;;;28.60;16.70;;;;;;5012234;28;20415;-72
2023/06/05 11:17:39;;;;;;;75.00;2.53;;;28.50;17.10;;;;;;5011987;28;20196;-72
2023/06/05 11:20:12;;;;;;;74.20;2.33;;;28.40;17.70;;;;;;5011578;28;20506;-72
2023/06/05 11:22:53;;;;;;;75.90;2.80;;;28.50;17.00;;;;;;5010922;28;20838;-72
2023/06/05 11:25:21;;;;;;;76.80;2.60;;;29.00;16.80;;;;;;4999098;28;20431;-74
2023/06/05 11:27:46;;;;;;;74.40;2.40;;;29.30;16.20;;;;;;4997387;28;20420;-73
2023/06/05 11:30:13;;;;;;;73.83;2.30;;;28.90;15.20;;;;;;4995211;28;20445;-74
2023/06/05 11:32:39;;;;;;;73.87;2.30;;;28.50;16.30;;;;;;4998588;28;20205;-74
2023/06/05 11:35:05;;;;;;;74.20;2.37;;;29.60;15.80;;;;;;4999830;28;20416;-73
2023/06/05 11:37:34;;;;;;;74.30;2.03;;;30.60;13.80;;;;;;4997170;28;20893;-73
2023/06/05 11:40:09;;;;;;;74.07;2.10;;;30.40;13.90;;;;;;4997739;28;20425;-73
2023/06/05 11:42:36;;;;;;;73.87;2.33;;;30.80;12.10;;;;;;5000224;28;20396;-72
2023/06/05 11:45:02;;;;;;;73.70;2.37;;;31.80;12.50;;;;;;5002588;28;20543;-73
2023/06/05 11:47:29;;;;;;;73.10;2.20;;;32.40;10.60;;;;;;5000162;28;20448;-74
2023/06/05 11:50:08;;;;;;;72.57;2.27;;;32.70;11.10;;;;;;5002314;28;20809;-74
2023/06/05 11:52:33;;;;;;;72.07;2.00;;;34.10;9.90;;;;;;5001454;28;20479;-72
2023/06/05 11:55:21;;;;;;;72.27;2.20;;;34.90;10.20;;;;;;5001918;28;20417;-74
2023/06/05 11:57:48;;;;;;;71.33;2.10;;;34.90;9.20;;;;;;4999400;28;20217;-73
2023/06/05 12:00:16;;;;;;;70.97;2.13;;;34.90;7.60;;;;;;4996129;28;20456;-72
2023/06/05 12:02:42;;;;;;;70.13;2.37;;;32.00;9.70;;;;;;4998030;28;20425;-73
2023/06/05 12:05:11;;;;;;;71.03;2.33;;;32.20;11.50;;;;;;4997104;28;20447;-73
2023/06/05 12:07:39;;;;;;;78.10;2.10;;;33.50;11.10;;;;;;4998529;28;20418;-73
2023/06/05 12:10:07;;;;;;;69.50;2.33;;;34.30;8.60;;;;;;4998309;28;20925;-73
2023/06/05 12:12:33;;;;;;;69.50;2.00;;;35.50;8.40;;;;;;4996761;28;20933;-74
2023/06/05 12:15:20;;;;;;;69.40;2.27;;;36.50;6.80;;;;;;4998459;28;20412;-73
2023/06/05 12:17:54;;;;;;;69.77;2.17;;;36.70;5.70;;;;;;4998516;28;20408;-73
2023/06/05 12:20:20;;;;;;;68.40;2.10;;;37.00;6.70;;;;;;4998296;28;20998;-74
2023/06/05 12:22:46;;;;;;;68.37;2.23;;;36.90;5.80;;;;;;4997604;28;20500;-74
2023/06/05 12:25:18;;;;;;;67.43;1.97;;;36.80;6.30;;;;;;4998278;28;20444;-73
2023/06/05 12:27:47;;;;;;;67.70;1.87;;;35.60;7.20;;;;;;4998361;28;20447;-74
2023/06/05 12:30:14;;;;;;;68.27;2.03;;;34.00;8.80;;;;;;4996339;28;20445;-73
2023/06/05 12:32:40;;;;;;;68.60;2.40;;;32.10;9.60;;;;;;4997613;28;20539;-73
2023/06/05 12:35:17;;;;;;;67.90;2.00;;;31.40;11.70;;;;;;4998088;28;20496;-73
2023/06/05 12:37:45;;;;;;;68.03;2.00;;;30.40;10.50;;;;;;4998300;28;20166;-72
2023/06/05 12:40:11;;;;;;;68.93;2.40;;;29.80;11.30;;;;;;4997818;28;20424;-72
2023/06/05 12:42:43;;;;;;;68.67;2.43;;;28.30;13.30;;;;;;4997687;28;20444;-72